sensor_id;sensor_type;location;lat;lon;timestamp;pressure;altitude;pressure_sealevel;temperature;humidity
4024;BME280;2026;51.002;13.668;2023-01-25T00:01:04;101066.38;;;2.01;94.35
4024;BME280;2026;51.002;13.668;2023-01-25T00:06:07;101068.25;;;1.99;93.64
4024;BME280;2026;51.002;13.668;2023-01-25T00:11:10;101075.16;;;1.47;95.87
4024;BME280;2026;51.002;13.668;2023-01-25T00:16:14;101060.72;;;1.57;95.42
4024;BME280;2026;51.002;13.668;2023-01-25T00:21:19;101054.59;;;1.58;95.67
4024;BME280;2026;51.002;13.668;2023-01-25T00:26:22;101056.75;;;1.38;96.54
4024;BME280;2026;51.002;13.668;2023-01-25T00:31:36;101060.09;;;1.40;97.56
4024;BME280;2026;51.002;13.668;2023-01-25T00:36:43;101055.53;;;1.57;96.62
4024;BME280;2026;51.002;13.668;2023-01-25T00:41:46;101057.69;;;1.50;96.08
4024;BME280;2026;51.002;13.668;2023-01-25T00:46:51;101051.81;;;1.48;96.11
4024;BME280;2026;51.002;13.668;2023-01-25T00:51:54;101064.09;;;1.45;96.69
4024;BME280;2026;51.002;13.668;2023-01-25T00:56:57;101050.22;;;1.33;96.87
4024;BME280;2026;51.002;13.668;2023-01-25T01:02:02;101047.66;;;1.46;95.67
4024;BME280;2026;51.002;13.668;2023-01-25T01:07:05;101042.06;;;1.65;95.45
4024;BME280;2026;51.002;13.668;2023-01-25T01:12:08;101044.34;;;1.70;95.24
4024;BME280;2026;51.002;13.668;2023-01-25T01:17:12;101048.72;;;1.69;95.25
4024;BME280;2026;51.002;13.668;2023-01-25T01:22:15;101036.91;;;1.78;94.69
4024;BME280;2026;51.002;13.668;2023-01-25T01:27:18;101034.63;;;1.86;94.10
4024;BME280;2026;51.002;13.668;2023-01-25T01:32:22;101025.31;;;1.84;94.17
4024;BME280;2026;51.002;13.668;2023-01-25T01:37:25;101011.66;;;1.81;94.13
4024;BME280;2026;51.002;13.668;2023-01-25T01:42:28;100999.25;;;1.87;93.31
4024;BME280;2026;51.002;13.668;2023-01-25T01:47:38;100994.03;;;2.00;92.90
4024;BME280;2026;51.002;13.668;2023-01-25T01:52:48;100993.03;;;1.89;93.83
4024;BME280;2026;51.002;13.668;2023-01-25T01:57:55;100993.66;;;1.93;93.26
4024;BME280;2026;51.002;13.668;2023-01-25T02:03:01;100978.31;;;1.90;94.04
4024;BME280;2026;51.002;13.668;2023-01-25T02:08:05;100974.38;;;1.97;93.51
4024;BME280;2026;51.002;13.668;2023-01-25T02:13:09;100964.88;;;1.98;93.70
4024;BME280;2026;51.002;13.668;2023-01-25T02:18:14;100969.94;;;1.99;93.51
4024;BME280;2026;51.002;13.668;2023-01-25T02:23:22;100965.16;;;2.06;92.45
4024;BME280;2026;51.002;13.668;2023-01-25T02:28:31;100959.03;;;2.07;92.17
4024;BME280;2026;51.002;13.668;2023-01-25T02:33:38;100950.47;;;1.93;92.90
4024;BME280;2026;51.002;13.668;2023-01-25T02:38:44;100953.91;;;1.94;94.13
4024;BME280;2026;51.002;13.668;2023-01-25T02:43:50;100938.38;;;1.94;93.77
4024;BME280;2026;51.002;13.668;2023-01-25T02:48:54;100935.47;;;1.99;93.00
4024;BME280;2026;51.002;13.668;2023-01-25T02:53:58;100934.00;;;2.07;91.91
4024;BME280;2026;51.002;13.668;2023-01-25T02:59:03;100917.59;;;1.95;92.69
4024;BME280;2026;51.002;13.668;2023-01-25T03:04:08;100911.84;;;2.03;92.85
4024;BME280;2026;51.002;13.668;2023-01-25T03:09:11;100911.84;;;2.03;92.39
4024;BME280;2026;51.002;13.668;2023-01-25T03:14:20;100915.75;;;2.09;91.86
4024;BME280;2026;51.002;13.668;2023-01-25T03:19:23;100926.06;;;1.98;93.07
4024;BME280;2026;51.002;13.668;2023-01-25T03:24:27;100916.41;;;2.00;92.87
4024;BME280;2026;51.002;13.668;2023-01-25T03:29:31;100911.25;;;2.00;92.25
4024;BME280;2026;51.002;13.668;2023-01-25T03:34:37;100915.72;;;1.98;91.87
4024;BME280;2026;51.002;13.668;2023-01-25T03:39:40;100909.81;;;1.95;91.01
4024;BME280;2026;51.002;13.668;2023-01-25T03:44:45;100905.13;;;1.76;92.01
4024;BME280;2026;51.002;13.668;2023-01-25T03:49:48;100905.66;;;1.68;93.04
4024;BME280;2026;51.002;13.668;2023-01-25T03:54:52;100901.00;;;1.74;91.87
4024;BME280;2026;51.002;13.668;2023-01-25T03:59:58;100892.84;;;1.91;91.88
4024;BME280;2026;51.002;13.668;2023-01-25T04:05:01;100903.09;;;1.93;91.65
4024;BME280;2026;51.002;13.668;2023-01-25T04:10:06;100896.63;;;1.87;92.53
4024;BME280;2026;51.002;13.668;2023-01-25T04:15:14;100898.91;;;1.79;92.10
4024;BME280;2026;51.002;13.668;2023-01-25T04:20:17;100888.97;;;1.35;91.83
4024;BME280;2026;51.002;13.668;2023-01-25T04:25:20;100879.50;;;1.60;92.37
4024;BME280;2026;51.002;13.668;2023-01-25T04:30:28;100884.44;;;1.76;91.89
4024;BME280;2026;51.002;13.668;2023-01-25T04:35:31;100891.59;;;1.73;91.48
4024;BME280;2026;51.002;13.668;2023-01-25T04:40:36;100884.56;;;1.62;91.94
4024;BME280;2026;51.002;13.668;2023-01-25T04:45:40;100892.41;;;1.73;92.01
4024;BME280;2026;51.002;13.668;2023-01-25T04:50:50;100893.75;;;1.29;91.81
4024;BME280;2026;51.002;13.668;2023-01-25T04:55:55;100891.91;;;1.05;93.54
4024;BME280;2026;51.002;13.668;2023-01-25T05:01:01;100885.13;;;1.41;92.56
4024;BME280;2026;51.002;13.668;2023-01-25T05:06:05;100889.41;;;1.66;92.08
4024;BME280;2026;51.002;13.668;2023-01-25T05:11:09;100886.59;;;1.70;91.61
4024;BME280;2026;51.002;13.668;2023-01-25T05:16:28;100881.38;;;1.58;91.19
4024;BME280;2026;51.002;13.668;2023-01-25T05:21:32;100881.50;;;1.44;92.36
4024;BME280;2026;51.002;13.668;2023-01-25T05:26:53;100875.66;;;1.29;92.32
4024;BME280;2026;51.002;13.668;2023-01-25T05:32:14;100871.56;;;1.00;92.60
4024;BME280;2026;51.002;13.668;2023-01-25T05:37:19;100864.97;;;1.46;92.90
4024;BME280;2026;51.002;13.668;2023-01-25T05:42:30;100864.25;;;1.44;92.36
4024;BME280;2026;51.002;13.668;2023-01-25T05:47:35;100866.16;;;0.90;94.34
4024;BME280;2026;51.002;13.668;2023-01-25T05:52:38;100847.28;;;1.40;92.88
4024;BME280;2026;51.002;13.668;2023-01-25T05:57:42;100848.31;;;1.37;92.90
4024;BME280;2026;51.002;13.668;2023-01-25T06:02:47;100846.28;;;1.30;92.62
4024;BME280;2026;51.002;13.668;2023-01-25T06:07:55;100849.56;;;1.45;92.42
4024;BME280;2026;51.002;13.668;2023-01-25T06:13:03;100845.25;;;1.32;92.43
4024;BME280;2026;51.002;13.668;2023-01-25T06:18:08;100845.59;;;1.52;91.64
4024;BME280;2026;51.002;13.668;2023-01-25T06:23:31;100843.63;;;1.56;91.83
4024;BME280;2026;51.002;13.668;2023-01-25T06:28:35;100846.78;;;1.48;91.42
4024;BME280;2026;51.002;13.668;2023-01-25T06:33:41;100848.31;;;1.37;92.32
4024;BME280;2026;51.002;13.668;2023-01-25T06:38:47;100842.38;;;1.24;92.92
4024;BME280;2026;51.002;13.668;2023-01-25T06:43:50;100845.59;;;1.02;93.63
4024;BME280;2026;51.002;13.668;2023-01-25T06:48:54;100838.88;;;1.25;93.20
4024;BME280;2026;51.002;13.668;2023-01-25T06:54:01;100831.78;;;1.40;92.64
4024;BME280;2026;51.002;13.668;2023-01-25T06:59:04;100831.53;;;1.19;91.95
4024;BME280;2026;51.002;13.668;2023-01-25T07:04:10;100836.19;;;1.13;92.34
4024;BME280;2026;51.002;13.668;2023-01-25T07:09:13;100827.47;;;1.40;92.57
4024;BME280;2026;51.002;13.668;2023-01-25T07:14:16;100816.84;;;1.32;92.63
4024;BME280;2026;51.002;13.668;2023-01-25T07:19:21;100813.88;;;1.12;93.66
4024;BME280;2026;51.002;13.668;2023-01-25T07:24:24;100802.66;;;1.38;92.73
4024;BME280;2026;51.002;13.668;2023-01-25T07:29:29;100797.47;;;1.62;91.66
4024;BME280;2026;51.002;13.668;2023-01-25T07:34:33;100806.50;;;1.57;91.83
4024;BME280;2026;51.002;13.668;2023-01-25T07:39:37;100795.63;;;1.64;90.86
4024;BME280;2026;51.002;13.668;2023-01-25T07:44:41;100796.78;;;1.60;91.02
4024;BME280;2026;51.002;13.668;2023-01-25T07:49:48;100793.16;;;1.63;90.10
4024;BME280;2026;51.002;13.668;2023-01-25T07:54:50;100791.75;;;1.21;91.13
4024;BME280;2026;51.002;13.668;2023-01-25T07:59:54;100778.88;;;1.33;91.44
4024;BME280;2026;51.002;13.668;2023-01-25T08:04:58;100772.34;;;1.40;91.41
4024;BME280;2026;51.002;13.668;2023-01-25T08:10:01;100768.38;;;1.47;90.58
4024;BME280;2026;51.002;13.668;2023-01-25T08:15:05;100765.94;;;1.33;91.09
4024;BME280;2026;51.002;13.668;2023-01-25T08:20:11;100761.38;;;1.12;92.34
4024;BME280;2026;51.002;13.668;2023-01-25T08:25:14;100759.47;;;1.27;91.31
4024;BME280;2026;51.002;13.668;2023-01-25T08:30:17;100751.00;;;1.25;90.79
4024;BME280;2026;51.002;13.668;2023-01-25T08:35:22;100756.47;;;1.33;90.90
4024;BME280;2026;51.002;13.668;2023-01-25T08:40:25;100762.38;;;0.59;92.63
4024;BME280;2026;51.002;13.668;2023-01-25T08:45:27;100762.69;;;0.54;94.87
4024;BME280;2026;51.002;13.668;2023-01-25T08:50:36;100760.06;;;0.93;93.24
4024;BME280;2026;51.002;13.668;2023-01-25T08:55:39;100756.03;;;1.39;91.73
4024;BME280;2026;51.002;13.668;2023-01-25T09:00:43;100746.66;;;1.50;91.68
4024;BME280;2026;51.002;13.668;2023-01-25T09:05:48;100756.13;;;1.38;89.87
4024;BME280;2026;51.002;13.668;2023-01-25T09:10:51;100745.72;;;1.51;89.21
4024;BME280;2026;51.002;13.668;2023-01-25T09:15:58;100739.94;;;1.47;89.72
4024;BME280;2026;51.002;13.668;2023-01-25T09:21:06;100746.50;;;1.64;89.16
4024;BME280;2026;51.002;13.668;2023-01-25T09:26:10;100738.09;;;1.85;87.35
4024;BME280;2026;51.002;13.668;2023-01-25T09:31:16;100729.28;;;1.76;87.25
4024;BME280;2026;51.002;13.668;2023-01-25T09:36:45;100729.75;;;1.81;87.14
4024;BME280;2026;51.002;13.668;2023-01-25T09:42:10;100725.81;;;2.00;86.63
4024;BME280;2026;51.002;13.668;2023-01-25T09:47:26;100724.25;;;1.86;86.61
4024;BME280;2026;51.002;13.668;2023-01-25T09:52:58;100723.78;;;1.92;85.30
4024;BME280;2026;51.002;13.668;2023-01-25T09:58:12;100722.72;;;1.95;84.06
4024;BME280;2026;51.002;13.668;2023-01-25T10:03:20;100719.78;;;2.00;84.39
4024;BME280;2026;51.002;13.668;2023-01-25T10:08:30;100715.72;;;2.20;83.16
4024;BME280;2026;51.002;13.668;2023-01-25T10:13:34;100712.78;;;2.25;83.52
4024;BME280;2026;51.002;13.668;2023-01-25T10:18:39;100706.44;;;2.29;82.83
4024;BME280;2026;51.002;13.668;2023-01-25T10:24:06;100706.19;;;2.20;83.09
4024;BME280;2026;51.002;13.668;2023-01-25T10:29:18;100699.38;;;1.72;83.13
4024;BME280;2026;51.002;13.668;2023-01-25T10:34:23;100693.97;;;2.11;83.03
4024;BME280;2026;51.002;13.668;2023-01-25T10:39:31;100680.78;;;2.37;82.54
4024;BME280;2026;51.002;13.668;2023-01-25T10:44:35;100667.59;;;2.40;81.58
4024;BME280;2026;51.002;13.668;2023-01-25T10:49:40;100654.22;;;2.35;81.05
4024;BME280;2026;51.002;13.668;2023-01-25T10:54:46;100654.22;;;1.53;83.96
4024;BME280;2026;51.002;13.668;2023-01-25T10:59:51;100650.25;;;1.36;86.11
4024;BME280;2026;51.002;13.668;2023-01-25T11:04:54;100642.00;;;1.31;85.37
4024;BME280;2026;51.002;13.668;2023-01-25T11:09:59;100631.53;;;0.97;86.79
4024;BME280;2026;51.002;13.668;2023-01-25T11:15:22;100618.84;;;0.94;87.38
4024;BME280;2026;51.002;13.668;2023-01-25T11:20:26;100628.03;;;1.22;86.78
4024;BME280;2026;51.002;13.668;2023-01-25T11:25:32;100615.88;;;1.47;85.99
4024;BME280;2026;51.002;13.668;2023-01-25T11:30:35;100600.47;;;1.46;85.62
4024;BME280;2026;51.002;13.668;2023-01-25T11:35:51;100590.91;;;1.93;84.28
4024;BME280;2026;51.002;13.668;2023-01-25T11:41:09;100585.16;;;2.01;83.32
4024;BME280;2026;51.002;13.668;2023-01-25T11:46:25;100569.03;;;1.63;85.39
4024;BME280;2026;51.002;13.668;2023-01-25T11:51:35;100560.47;;;1.97;85.25
4024;BME280;2026;51.002;13.668;2023-01-25T11:56:51;100550.94;;;1.98;85.07
4024;BME280;2026;51.002;13.668;2023-01-25T12:02:08;100549.78;;;2.02;84.45
4024;BME280;2026;51.002;13.668;2023-01-25T12:07:19;100536.34;;;2.19;84.29
4024;BME280;2026;51.002;13.668;2023-01-25T12:12:37;100516.38;;;1.99;84.63
4024;BME280;2026;51.002;13.668;2023-01-25T12:17:54;100501.75;;;2.09;83.71
4024;BME280;2026;51.002;13.668;2023-01-25T12:28:36;100483.22;;;2.04;83.15
4024;BME280;2026;51.002;13.668;2023-01-25T12:33:46;100473.09;;;2.12;83.94
4024;BME280;2026;51.002;13.668;2023-01-25T12:38:56;100467.88;;;2.23;83.99
4024;BME280;2026;51.002;13.668;2023-01-25T12:44:07;100457.75;;;1.76;84.95
4024;BME280;2026;51.002;13.668;2023-01-25T12:49:21;100457.72;;;1.88;84.41
4024;BME280;2026;51.002;13.668;2023-01-25T12:54:31;100446.19;;;1.92;85.02
4024;BME280;2026;51.002;13.668;2023-01-25T12:59:42;100438.03;;;2.08;83.68
4024;BME280;2026;51.002;13.668;2023-01-25T13:04:57;100436.81;;;2.23;82.99
4024;BME280;2026;51.002;13.668;2023-01-25T13:10:04;100438.97;;;2.07;82.65
4024;BME280;2026;51.002;13.668;2023-01-25T13:15:34;100410.09;;;2.02;84.13
4024;BME280;2026;51.002;13.668;2023-01-25T13:20:47;100416.31;;;1.88;84.25
4024;BME280;2026;51.002;13.668;2023-01-25T13:25:50;100406.19;;;1.18;87.13
4024;BME280;2026;51.002;13.668;2023-01-25T13:30:55;100400.53;;;1.35;88.05
4024;BME280;2026;51.002;13.668;2023-01-25T13:36:37;100409.53;;;0.95;88.84
4024;BME280;2026;51.002;13.668;2023-01-25T13:41:57;100393.25;;;1.40;87.44
4024;BME280;2026;51.002;13.668;2023-01-25T13:47:03;100385.97;;;1.57;86.06
4024;BME280;2026;51.002;13.668;2023-01-25T13:52:13;100371.94;;;1.71;84.29
4024;BME280;2026;51.002;13.668;2023-01-25T13:57:19;100369.44;;;1.81;85.32
4024;BME280;2026;51.002;13.668;2023-01-25T14:02:25;100363.00;;;1.75;84.58
4024;BME280;2026;51.002;13.668;2023-01-25T14:07:31;100365.72;;;1.62;86.62
4024;BME280;2026;51.002;13.668;2023-01-25T14:12:36;100356.22;;;1.63;86.33
4024;BME280;2026;51.002;13.668;2023-01-25T14:17:42;100350.94;;;1.53;86.81
4024;BME280;2026;51.002;13.668;2023-01-25T14:22:49;100340.13;;;1.59;86.74
4024;BME280;2026;51.002;13.668;2023-01-25T14:27:54;100334.56;;;1.75;86.64
4024;BME280;2026;51.002;13.668;2023-01-25T14:33:01;100338.25;;;1.38;86.27
4024;BME280;2026;51.002;13.668;2023-01-25T14:38:22;100334.78;;;1.72;86.08
4024;BME280;2026;51.002;13.668;2023-01-25T14:43:25;100323.44;;;1.52;86.37
4024;BME280;2026;51.002;13.668;2023-01-25T14:48:35;100314.88;;;1.40;87.31
4024;BME280;2026;51.002;13.668;2023-01-25T14:53:40;100313.09;;;1.52;87.17
4024;BME280;2026;51.002;13.668;2023-01-25T14:58:44;100302.06;;;1.50;87.96
4024;BME280;2026;51.002;13.668;2023-01-25T15:04:00;100291.41;;;1.76;86.60
4024;BME280;2026;51.002;13.668;2023-01-25T15:09:04;100291.88;;;1.81;86.67
4024;BME280;2026;51.002;13.668;2023-01-25T15:14:15;100283.63;;;1.87;85.82
4024;BME280;2026;51.002;13.668;2023-01-25T15:19:26;100272.47;;;2.08;86.57
4024;BME280;2026;51.002;13.668;2023-01-25T15:24:29;100268.59;;;2.02;85.67
4024;BME280;2026;51.002;13.668;2023-01-25T15:29:32;100263.16;;;2.05;84.82
4024;BME280;2026;51.002;13.668;2023-01-25T15:34:36;100249.25;;;1.97;86.15
4024;BME280;2026;51.002;13.668;2023-01-25T15:39:39;100239.19;;;1.82;86.64
4024;BME280;2026;51.002;13.668;2023-01-25T15:44:42;100240.72;;;1.85;86.79
4024;BME280;2026;51.002;13.668;2023-01-25T15:49:46;100239.88;;;1.84;87.11
4024;BME280;2026;51.002;13.668;2023-01-25T15:54:50;100227.09;;;1.83;85.98
4024;BME280;2026;51.002;13.668;2023-01-25T16:00:03;100222.81;;;1.93;86.67
4024;BME280;2026;51.002;13.668;2023-01-25T16:05:08;100222.25;;;1.89;87.09
4024;BME280;2026;51.002;13.668;2023-01-25T16:10:21;100216.88;;;2.02;86.48
4024;BME280;2026;51.002;13.668;2023-01-25T16:15:24;100210.94;;;1.90;86.85
4024;BME280;2026;51.002;13.668;2023-01-25T16:20:29;100206.34;;;1.94;86.35
4024;BME280;2026;51.002;13.668;2023-01-25T16:25:32;100200.16;;;1.85;87.44
4024;BME280;2026;51.002;13.668;2023-01-25T16:30:35;100195.53;;;1.89;87.41
4024;BME280;2026;51.002;13.668;2023-01-25T16:35:39;100190.19;;;1.80;87.20
4024;BME280;2026;51.002;13.668;2023-01-25T16:40:42;100176.75;;;1.65;88.48
4024;BME280;2026;51.002;13.668;2023-01-25T16:45:45;100169.75;;;1.77;88.40
4024;BME280;2026;51.002;13.668;2023-01-25T16:50:50;100159.88;;;1.83;87.89
4024;BME280;2026;51.002;13.668;2023-01-25T16:55:53;100162.63;;;1.91;87.87
4024;BME280;2026;51.002;13.668;2023-01-25T17:00:56;100155.28;;;1.96;86.77
4024;BME280;2026;51.002;13.668;2023-01-25T17:06:00;100151.09;;;1.74;88.53
4024;BME280;2026;51.002;13.668;2023-01-25T17:11:03;100144.13;;;1.74;88.44
4024;BME280;2026;51.002;13.668;2023-01-25T17:16:07;100147.25;;;1.89;88.48
4024;BME280;2026;51.002;13.668;2023-01-25T17:21:12;100136.50;;;1.94;87.63
4024;BME280;2026;51.002;13.668;2023-01-25T17:26:19;100129.75;;;2.03;87.87
4024;BME280;2026;51.002;13.668;2023-01-25T17:31:24;100125.00;;;2.08;87.12
4024;BME280;2026;51.002;13.668;2023-01-25T17:36:29;100110.34;;;1.87;87.90
4024;BME280;2026;51.002;13.668;2023-01-25T17:41:32;100119.38;;;1.72;88.99
4024;BME280;2026;51.002;13.668;2023-01-25T17:46:35;100105.56;;;1.19;90.99
4024;BME280;2026;51.002;13.668;2023-01-25T17:51:40;100095.84;;;1.75;89.49
4024;BME280;2026;51.002;13.668;2023-01-25T17:56:43;100101.63;;;1.88;88.90
4024;BME280;2026;51.002;13.668;2023-01-25T18:01:46;100091.16;;;1.90;88.51
4024;BME280;2026;51.002;13.668;2023-01-25T18:06:50;100088.03;;;1.86;87.79
4024;BME280;2026;51.002;13.668;2023-01-25T18:11:53;100087.75;;;1.89;88.59
4024;BME280;2026;51.002;13.668;2023-01-25T18:16:56;100080.38;;;1.85;88.56
4024;BME280;2026;51.002;13.668;2023-01-25T18:22:00;100081.16;;;1.75;89.27
4024;BME280;2026;51.002;13.668;2023-01-25T18:27:05;100078.19;;;1.80;88.59
4024;BME280;2026;51.002;13.668;2023-01-25T18:32:08;100073.31;;;1.87;88.07
4024;BME280;2026;51.002;13.668;2023-01-25T18:37:13;100071.38;;;1.79;88.49
4024;BME280;2026;51.002;13.668;2023-01-25T18:42:29;100082.66;;;1.78;88.17
4024;BME280;2026;51.002;13.668;2023-01-25T18:47:32;100071.38;;;1.79;88.67
4024;BME280;2026;51.002;13.668;2023-01-25T18:52:37;100073.69;;;1.82;88.12
4024;BME280;2026;51.002;13.668;2023-01-25T18:57:39;100061.28;;;1.76;88.41
4024;BME280;2026;51.002;13.668;2023-01-25T19:02:42;100056.38;;;1.73;88.56
4024;BME280;2026;51.002;13.668;2023-01-25T19:07:47;100044.78;;;1.67;88.97
4024;BME280;2026;51.002;13.668;2023-01-25T19:12:50;100028.06;;;1.71;88.87
4024;BME280;2026;51.002;13.668;2023-01-25T19:17:53;100016.22;;;1.68;88.97
4024;BME280;2026;51.002;13.668;2023-01-25T19:22:57;100013.88;;;1.65;88.59
4024;BME280;2026;51.002;13.668;2023-01-25T19:28:00;100009.00;;;1.72;88.84
4024;BME280;2026;51.002;13.668;2023-01-25T19:33:03;99992.94;;;1.68;88.39
4024;BME280;2026;51.002;13.668;2023-01-25T19:38:07;99992.69;;;1.72;89.13
4024;BME280;2026;51.002;13.668;2023-01-25T19:43:10;99983.03;;;1.74;88.89
4024;BME280;2026;51.002;13.668;2023-01-25T19:48:13;99969.44;;;1.81;87.91
4024;BME280;2026;51.002;13.668;2023-01-25T19:53:18;99981.28;;;1.43;89.86
4024;BME280;2026;51.002;13.668;2023-01-25T19:58:24;99969.09;;;1.55;89.16
4024;BME280;2026;51.002;13.668;2023-01-25T20:03:28;99976.91;;;1.75;89.19
4024;BME280;2026;51.002;13.668;2023-01-25T20:08:33;99983.09;;;1.00;90.77
4024;BME280;2026;51.002;13.668;2023-01-25T20:13:37;99977.97;;;1.10;92.21
4024;BME280;2026;51.002;13.668;2023-01-25T20:18:40;99969.13;;;1.65;90.06
4024;BME280;2026;51.002;13.668;2023-01-25T20:23:46;99964.50;;;1.68;89.66
4024;BME280;2026;51.002;13.668;2023-01-25T20:28:51;99962.66;;;1.49;89.75
4024;BME280;2026;51.002;13.668;2023-01-25T20:33:56;99954.94;;;1.59;89.59
4024;BME280;2026;51.002;13.668;2023-01-25T20:39:01;99951.97;;;1.64;89.94
4024;BME280;2026;51.002;13.668;2023-01-25T20:44:04;99944.19;;;1.54;89.62
4024;BME280;2026;51.002;13.668;2023-01-25T20:49:12;99937.81;;;1.58;89.99
4024;BME280;2026;51.002;13.668;2023-01-25T20:54:17;99927.03;;;1.53;89.60
4024;BME280;2026;51.002;13.668;2023-01-25T20:59:21;99912.59;;;1.40;90.13
4024;BME280;2026;51.002;13.668;2023-01-25T21:04:24;99906.53;;;1.30;90.64
4024;BME280;2026;51.002;13.668;2023-01-25T21:09:28;99897.75;;;1.43;90.26
4024;BME280;2026;51.002;13.668;2023-01-25T21:14:31;99900.28;;;1.64;89.83
4024;BME280;2026;51.002;13.668;2023-01-25T21:19:35;99899.34;;;1.75;88.35
4024;BME280;2026;51.002;13.668;2023-01-25T21:24:39;99893.59;;;1.51;89.93
4024;BME280;2026;51.002;13.668;2023-01-25T21:29:42;99894.19;;;1.75;89.57
4024;BME280;2026;51.002;13.668;2023-01-25T21:34:47;99880.81;;;1.70;89.07
4024;BME280;2026;51.002;13.668;2023-01-25T21:39:51;99886.13;;;1.58;90.03
4024;BME280;2026;51.002;13.668;2023-01-25T21:44:54;99868.88;;;1.88;88.49
4024;BME280;2026;51.002;13.668;2023-01-25T21:50:15;99868.47;;;1.83;89.57
4024;BME280;2026;51.002;13.668;2023-01-25T21:55:37;99861.25;;;1.77;89.91
4024;BME280;2026;51.002;13.668;2023-01-25T22:00:40;99858.25;;;1.81;88.91
4024;BME280;2026;51.002;13.668;2023-01-25T22:05:43;99859.88;;;1.73;90.11
4024;BME280;2026;51.002;13.668;2023-01-25T22:10:47;99861.78;;;1.71;89.81
4024;BME280;2026;51.002;13.668;2023-01-25T22:15:50;99867.66;;;1.73;89.51
4024;BME280;2026;51.002;13.668;2023-01-25T22:20:57;99864.66;;;1.77;90.06
4024;BME280;2026;51.002;13.668;2023-01-25T22:26:06;99854.56;;;1.74;90.11
4024;BME280;2026;51.002;13.668;2023-01-25T22:31:09;99844.41;;;1.83;88.55
4024;BME280;2026;51.002;13.668;2023-01-25T22:36:13;99838.09;;;1.65;88.98
4024;BME280;2026;51.002;13.668;2023-01-25T22:41:20;99829.00;;;1.81;88.96
4024;BME280;2026;51.002;13.668;2023-01-25T22:46:25;99834.03;;;1.73;88.63
4024;BME280;2026;51.002;13.668;2023-01-25T22:51:29;99831.59;;;1.81;88.81
4024;BME280;2026;51.002;13.668;2023-01-25T22:56:33;99827.47;;;1.68;88.82
4024;BME280;2026;51.002;13.668;2023-01-25T23:01:36;99822.59;;;1.65;89.96
4024;BME280;2026;51.002;13.668;2023-01-25T23:06:39;99812.13;;;1.77;89.30
4024;BME280;2026;51.002;13.668;2023-01-25T23:11:43;99806.81;;;1.68;90.25
4024;BME280;2026;51.002;13.668;2023-01-25T23:16:46;99804.66;;;1.84;89.70
4024;BME280;2026;51.002;13.668;2023-01-25T23:21:49;99799.19;;;1.77;89.73
4024;BME280;2026;51.002;13.668;2023-01-25T23:26:54;99791.97;;;1.90;88.81
4024;BME280;2026;51.002;13.668;2023-01-25T23:31:57;99779.06;;;1.90;89.29
4024;BME280;2026;51.002;13.668;2023-01-25T23:37:00;99776.88;;;1.95;89.34
4024;BME280;2026;51.002;13.668;2023-01-25T23:42:05;99760.13;;;2.00;87.79
4024;BME280;2026;51.002;13.668;2023-01-25T23:47:08;99753.19;;;1.90;88.61
4024;BME280;2026;51.002;13.668;2023-01-25T23:52:11;99745.13;;;2.03;87.68
4024;BME280;2026;51.002;13.668;2023-01-25T23:57:15;99753.59;;;1.95;88.49
